.
WxDataArchive / Data Records for 2007-08-22
2007-08-21 August 2007 2007-08-23

Data Records for Wednesday, 22 August 2007

Time	Temp	Chill	HIndex	Humid	Dewpt	 Wind 	HiWind	WindDir	Rain 	Barom 
-----	----	-----	------	-----	-----	------	------	-------	-----	----- 
00:00	70.9	70.9	70.9	97	70.0	1	3	68	0.00	29.932 
00:05	70.8	70.8	70.8	97	69.9	0	3	68	0.00	29.931 
00:10	70.8	70.8	70.8	97	69.9	0	1	68	0.00	29.932 
00:15	70.8	70.8	70.8	97	69.9	1	2	68	0.00	29.927 
00:20	70.6	70.6	70.6	97	69.7	0	2	68	0.00	29.929 
00:25	70.6	70.6	70.6	97	69.7	0	1	68	0.00	29.930 
00:30	70.6	70.6	70.6	97	69.7	0	1	68	0.00	29.930 
00:35	70.6	70.6	70.6	97	69.7	0	1	68	0.00	29.931 
00:40	70.4	70.4	70.4	97	69.5	0	2	68	0.00	29.932 
00:45	70.4	70.4	70.4	97	69.5	0	2	90	0.00	29.932 
00:50	70.4	70.4	70.4	97	69.5	0	2	90	0.00	29.926 
00:55	70.4	70.4	70.4	97	69.5	0	2	90	0.00	29.931 
01:00	70.4	70.4	70.4	97	69.5	0	1	90	0.00	29.942 
01:05	70.4	70.4	70.4	97	69.5	0	1	90	0.00	29.939 
01:10	70.4	70.4	70.4	97	69.5	0	1	90	0.00	29.935 
01:15	70.4	70.4	70.4	97	69.5	0	1	90	0.00	29.933 
01:20	70.4	70.4	70.4	97	69.5	0	2	90	0.00	29.928 
01:25	70.3	70.3	70.3	97	69.4	0	2	90	0.00	29.932 
01:30	70.4	70.4	70.4	97	69.5	1	4	90	0.00	29.930 
01:35	70.4	70.4	70.4	97	69.5	0	2	90	0.00	29.933 
01:40	70.4	70.4	70.4	97	69.5	0	3	90	0.00	29.928 
01:45	70.4	70.4	70.4	97	69.5	0	1	90	0.00	29.927 
01:50	70.4	70.4	70.4	97	69.5	0	1	90	0.00	29.927 
01:55	70.4	70.4	70.4	98	69.8	0	2	90	0.00	29.924 
02:00	70.4	70.4	70.4	98	69.8	0	1	90	0.00	29.926 
02:05	70.4	70.4	70.4	98	69.8	0	2	90	0.00	29.921 
02:10	70.4	70.4	70.4	98	69.8	0	0	---	0.01	29.924 
02:15	70.4	70.4	70.4	98	69.8	0	0	---	0.01	29.932 
02:20	70.4	70.4	70.4	98	69.8	0	2	90	0.00	29.927 
02:25	70.4	70.4	70.4	98	69.8	0	1	90	0.00	29.922 
02:30	70.6	70.6	70.6	98	70.0	0	1	90	0.00	29.915 
02:35	70.6	70.6	70.6	98	70.0	0	2	90	0.00	29.921 
02:40	70.6	70.6	70.6	98	70.0	1	2	90	0.00	29.923 
02:45	70.6	70.6	70.6	98	70.0	1	3	90	0.00	29.922 
02:50	70.4	70.4	70.4	98	69.8	0	2	90	0.00	29.917 
02:55	70.4	70.4	70.4	98	69.8	0	2	90	0.00	29.921 
03:00	70.4	70.4	70.4	98	69.8	0	2	225	0.00	29.914 
03:05	70.4	70.4	70.4	98	69.8	0	1	225	0.00	29.910 
03:10	70.4	70.4	70.4	98	69.8	0	1	225	0.00	29.909 
03:15	70.4	70.4	70.4	98	69.8	1	2	225	0.01	29.907 
03:20	70.4	70.4	70.4	98	69.8	1	2	180	0.00	29.909 
03:25	70.4	70.4	70.4	98	69.8	0	2	180	0.00	29.913 
03:30	70.4	70.4	70.4	98	69.8	0	1	180	0.00	29.917 
03:35	70.4	70.4	70.4	98	69.8	0	2	180	0.00	29.913 
03:40	70.3	70.3	70.3	98	69.7	0	2	158	0.00	29.914 
03:45	70.3	70.3	70.3	98	69.7	0	2	158	0.00	29.918 
03:50	70.4	70.4	70.4	98	69.8	0	1	158	0.00	29.918 
03:55	70.4	70.4	70.4	98	69.8	0	1	158	0.00	29.920 
04:00	70.4	70.4	70.4	98	69.8	0	1	158	0.00	29.922 
04:05	70.4	70.4	70.4	98	69.8	0	1	158	0.00	29.925 
04:10	70.4	70.4	70.4	98	69.8	0	1	158	0.00	29.928 
04:15	70.3	70.3	70.3	98	69.7	0	0	---	0.00	29.929 
04:20	70.3	70.3	70.3	98	69.7	0	0	---	0.00	29.929 
04:25	70.3	70.3	70.3	98	69.7	0	0	---	0.00	29.935 
04:30	70.1	70.1	70.1	98	69.5	0	1	158	0.00	29.937 
04:35	70.1	70.1	70.1	98	69.5	0	0	---	0.00	29.939 
04:40	69.9	69.9	69.9	98	69.3	0	0	---	0.00	29.939 
04:45	69.9	69.9	69.9	98	69.3	0	1	158	0.00	29.939 
04:50	69.9	69.9	69.9	98	69.3	0	1	158	0.00	29.940 
04:55	69.9	69.9	69.9	98	69.3	0	1	158	0.00	29.940 
05:00	69.9	69.9	69.9	98	69.3	0	2	158	0.00	29.936 
05:05	69.9	69.9	69.9	98	69.3	0	0	---	0.00	29.940 
05:10	69.9	69.9	69.9	98	69.3	0	1	158	0.00	29.940 
05:15	69.9	69.9	69.9	98	69.3	0	0	---	0.00	29.940 
05:20	69.9	69.9	69.9	98	69.3	0	0	---	0.00	29.943 
05:25	69.8	69.8	69.8	98	69.2	0	1	158	0.00	29.942 
05:30	69.8	69.8	69.8	98	69.2	0	0	---	0.00	29.944 
05:35	69.8	69.8	69.8	98	69.2	0	0	---	0.00	29.940 
05:40	69.8	69.8	69.8	98	69.2	0	0	---	0.00	29.939 
05:45	69.8	69.8	69.8	98	69.2	0	0	---	0.00	29.941 
05:50	69.8	69.8	69.8	98	69.2	0	1	158	0.00	29.944 
05:55	69.8	69.8	69.8	98	69.2	0	1	158	0.00	29.950 
06:00	69.8	69.8	69.8	98	69.2	0	0	---	0.00	29.956 
06:05	69.9	69.9	69.9	98	69.3	0	1	158	0.00	29.957 
06:10	70.1	70.1	70.1	98	69.5	0	1	158	0.00	29.958 
06:15	70.3	70.3	70.3	98	69.7	0	1	158	0.00	29.968 
06:20	70.3	70.3	70.3	98	69.7	0	1	158	0.00	29.970 
06:25	70.4	70.4	70.4	98	69.8	0	2	112	0.00	29.965 
06:30	70.4	70.4	70.4	98	69.8	0	2	112	0.00	29.965 
06:35	70.6	70.6	70.6	98	70.0	0	1	112	0.00	29.962 
06:40	70.6	70.6	70.6	98	70.0	0	0	---	0.00	29.971 
06:45	70.8	70.8	70.8	98	70.2	0	0	---	0.00	29.972 
06:50	70.9	70.9	70.9	98	70.3	0	1	112	0.00	29.965 
06:55	70.9	70.9	70.9	98	70.3	0	1	112	0.00	29.964 
07:00	70.9	70.9	70.9	98	70.3	0	1	112	0.00	29.961 
07:05	70.9	70.9	70.9	98	70.3	0	1	112	0.00	29.959 
07:10	71.1	71.1	71.1	99	70.8	0	1	112	0.00	29.959 
07:15	71.1	71.1	71.1	99	70.8	0	0	---	0.00	29.958 
07:20	71.3	71.3	71.3	99	71.0	0	1	112	0.00	29.958 
07:25	71.3	71.3	71.3	99	71.0	0	1	112	0.00	29.956 
07:30	71.3	71.3	71.3	99	71.0	0	1	112	0.00	29.957 
07:35	71.5	71.5	71.5	99	71.2	0	0	---	0.00	29.960 
07:40	71.6	71.6	71.6	99	71.3	0	1	112	0.00	29.968 
07:45	71.6	71.6	71.6	99	71.3	0	1	112	0.00	29.974 
07:50	71.8	71.8	71.8	99	71.5	0	1	112	0.00	29.977 
07:55	72.0	72.0	72.0	99	71.7	0	1	112	0.00	29.979 
08:00	72.1	72.1	72.1	99	71.8	0	1	112	0.00	29.972 
08:05	72.1	72.1	72.1	99	71.8	0	1	112	0.00	29.973 
08:10	72.3	72.3	72.3	99	72.0	0	1	112	0.00	29.962 
08:15	72.3	72.3	72.3	99	72.0	1	2	112	0.00	29.958 
08:20	72.5	72.5	72.5	99	72.2	0	2	112	0.00	29.956 
08:25	72.5	72.5	72.5	99	72.2	1	2	112	0.00	29.956 
08:30	72.7	72.7	72.7	99	72.4	1	3	112	0.00	29.950 
08:35	72.7	72.7	72.7	99	72.4	0	4	112	0.00	29.945 
08:40	72.7	72.7	72.7	99	72.4	1	3	112	0.00	29.941 
08:45	72.8	72.8	72.8	99	72.5	1	3	112	0.00	29.938 
08:50	73.0	73.0	73.0	99	72.7	1	3	112	0.00	29.942 
08:55	73.3	73.3	73.3	99	73.0	1	2	135	0.00	29.943 
09:00	73.5	73.5	73.5	99	73.2	1	3	112	0.00	29.941 
09:05	73.9	73.9	73.9	99	73.6	0	2	112	0.00	29.941 
09:10	74.4	74.4	74.4	99	74.1	1	3	90	0.00	29.944 
09:15	74.7	74.7	74.7	99	74.4	1	2	135	0.00	29.949 
09:20	75.1	75.1	72.6	99	74.8	1	3	112	0.00	29.945 
09:25	75.4	75.4	73.6	98	74.8	2	5	112	0.00	29.945 
09:30	75.8	75.8	74.6	98	75.2	2	5	90	0.00	29.943 
09:35	76.1	76.1	75.3	98	75.5	2	4	112	0.00	29.945 
09:40	76.5	76.5	76.6	96	75.3	1	3	112	0.00	29.948 
09:45	76.7	76.7	77.2	94	74.8	1	5	112	0.00	29.948 
09:50	77.2	77.2	78.5	93	75.0	1	2	112	0.00	29.950 
09:55	77.6	77.6	79.5	91	74.8	2	5	90	0.00	29.945 
10:00	77.9	77.9	80.2	89	74.4	2	7	90	0.00	29.941 
10:05	78.5	78.5	81.6	88	74.6	1	4	112	0.00	29.935 
10:10	79.2	79.2	83.2	87	75.0	1	5	90	0.00	29.937 
10:15	79.9	79.9	84.5	84	74.6	2	5	90	0.00	29.939 
10:20	80.3	80.3	85.3	83	74.6	2	6	90	0.00	29.939 
10:25	80.7	80.7	86.1	82	74.7	2	5	90	0.00	29.940 
10:30	81.1	81.1	87.1	82	75.1	1	6	90	0.00	29.937 
10:35	81.2	81.2	87.1	81	74.8	2	5	90	0.00	29.937 
10:40	81.4	81.4	87.6	81	75.0	2	6	112	0.00	29.941 
10:45	81.6	81.6	88.1	81	75.2	1	5	135	0.00	29.938 
10:50	81.8	81.8	88.5	81	75.4	1	4	112	0.00	29.932 
10:55	82.2	82.2	89.5	81	75.8	1	6	270	0.00	29.932 
11:00	82.2	82.2	89.5	81	75.8	2	6	270	0.00	29.933 
11:05	82.4	82.4	89.8	80	75.6	2	6	248	0.00	29.936 
11:10	83.0	83.0	91.0	79	75.8	1	4	90	0.00	29.937 
11:15	83.6	83.6	92.5	79	76.4	1	3	270	0.00	29.941 
11:20	84.3	84.3	94.4	79	77.1	1	5	248	0.00	29.943 
11:25	84.9	84.9	95.2	77	76.9	1	5	90	0.00	29.941 
11:30	85.3	85.3	95.5	75	76.4	1	5	90	0.00	29.942 
11:35	85.3	85.3	94.6	73	75.6	2	4	270	0.00	29.944 
11:40	85.1	85.1	94.9	75	76.3	1	4	45	0.00	29.947 
11:45	84.7	84.7	93.9	75	75.9	1	4	248	0.00	29.949 
11:50	84.5	84.5	94.2	77	76.5	1	2	248	0.00	29.953 
11:55	84.3	84.3	92.9	75	75.5	1	3	248	0.00	29.954 
12:00	84.3	84.3	92.9	75	75.5	1	4	248	0.00	29.957 
12:05	84.9	84.9	94.8	76	76.5	1	3	45	0.00	29.956 
12:10	85.7	85.7	96.1	74	76.4	1	4	270	0.00	29.956 
12:15	86.1	86.1	96.7	73	76.4	1	4	270	0.00	29.949 
12:20	86.5	86.5	96.8	71	75.9	1	4	248	0.00	29.949 
12:25	86.5	86.5	96.3	70	75.5	2	3	112	0.00	29.949 
12:30	86.5	86.5	97.2	72	76.4	1	4	248	0.00	29.944 
12:35	87.0	87.0	97.6	70	76.0	1	3	270	0.00	29.943 
12:40	87.2	87.2	98.6	71	76.6	1	6	248	0.00	29.943 
12:45	87.0	87.0	97.1	69	75.6	2	4	270	0.00	29.944 
12:50	86.5	86.5	96.8	71	75.9	1	3	270	0.00	29.943 
12:55	86.5	86.5	98.2	74	77.2	1	3	270	0.00	29.942 
13:00	86.5	86.5	97.2	72	76.4	1	4	248	0.00	29.942 
13:05	87.0	87.0	97.1	69	75.6	2	6	270	0.00	29.943 
13:10	87.2	87.2	98.1	70	76.2	1	5	292	0.00	29.941 
13:15	87.4	87.4	98.6	70	76.4	1	5	270	0.00	29.941 
13:20	87.2	87.2	98.1	70	76.2	1	3	248	0.00	29.942 
13:25	86.7	86.7	96.3	69	75.3	1	3	248	0.00	29.944 
13:30	86.7	86.7	95.9	68	74.8	2	10	270	0.00	29.943 
13:35	86.7	86.7	96.3	69	75.3	2	4	248	0.00	29.943 
13:40	87.4	87.4	98.1	69	75.9	1	4	248	0.00	29.942 
13:45	87.6	87.6	97.6	67	75.3	2	5	270	0.00	29.938 
13:50	87.4	87.4	96.1	65	74.2	1	4	270	0.00	29.941 
13:55	87.2	87.2	96.1	66	74.4	2	5	270	0.00	29.938 
14:00	87.0	87.0	96.1	67	74.7	2	4	248	0.00	29.939 
14:05	87.2	87.2	96.6	67	74.9	1	4	270	0.00	29.934 
14:10	87.4	87.4	97.1	67	75.1	2	6	270	0.00	29.932 
14:15	87.8	87.8	97.6	66	75.0	2	5	270	0.00	29.930 
14:20	88.0	88.0	96.6	63	73.8	2	6	270	0.00	29.929 
14:25	87.8	87.8	97.1	65	74.5	2	5	248	0.00	29.930 
14:30	88.2	88.2	98.0	65	74.9	2	4	248	0.00	29.929 
14:35	88.8	88.8	99.5	65	75.5	1	4	270	0.00	29.928 
14:40	89.0	89.0	98.9	63	74.7	2	4	270	0.00	29.926 
14:45	88.8	88.8	99.0	64	75.0	1	3	270	0.00	29.927 
14:50	88.6	88.6	99.0	65	75.3	1	2	248	0.00	29.927 
14:55	88.6	88.6	98.5	64	74.8	2	5	248	0.00	29.927 
15:00	88.8	88.8	98.5	63	74.5	1	3	248	0.00	29.925 
15:05	89.0	89.0	98.9	63	74.7	2	4	270	0.00	29.925 
15:10	88.4	88.4	97.5	63	74.2	2	5	270	0.00	29.926 
15:15	88.2	88.2	97.5	64	74.4	1	4	270	0.00	29.926 
15:20	87.8	87.8	97.1	65	74.5	1	3	248	0.00	29.926 
15:25	88.4	88.4	99.1	66	75.6	1	4	248	0.00	29.924 
15:30	89.0	89.0	100.0	65	75.7	1	5	248	0.00	29.920 
15:35	89.3	89.3	99.1	62	74.5	2	5	270	0.00	29.921 
15:40	89.0	89.0	98.9	63	74.7	1	3	248	0.00	29.922 
15:45	88.6	88.6	99.0	65	75.3	1	4	248	0.00	29.919 
15:50	88.0	88.0	96.6	63	73.8	1	3	270	0.00	29.918 
15:55	87.6	87.6	96.6	65	74.3	1	3	315	0.00	29.917 
16:00	88.0	88.0	97.1	64	74.3	1	4	248	0.00	29.923 
16:05	88.6	88.6	98.5	64	74.8	1	4	270	0.00	29.923 
16:10	88.8	88.8	97.9	62	74.1	2	4	270	0.00	29.922 
16:15	89.0	89.0	98.4	62	74.3	1	3	270	0.00	29.920 
16:20	88.8	88.8	96.9	60	73.1	2	5	270	0.00	29.919 
16:25	88.6	88.6	97.0	61	73.4	2	4	270	0.00	29.920 
16:30	88.6	88.6	97.5	62	73.9	2	5	270	0.00	29.920 
16:35	88.6	88.6	97.5	62	73.9	2	4	270	0.00	29.919 
16:40	88.4	88.4	96.0	60	72.7	2	4	270	0.00	29.921 
16:45	88.2	88.2	96.5	62	73.5	1	3	248	0.00	29.923 
16:50	88.4	88.4	97.5	63	74.2	1	3	248	0.00	29.922 
16:55	88.6	88.6	97.0	61	73.4	1	3	292	0.00	29.921 
17:00	88.4	88.4	96.5	61	73.2	2	5	270	0.00	29.921 
17:05	88.4	88.4	96.5	61	73.2	2	3	270	0.00	29.925 
17:10	88.2	88.2	96.1	61	73.0	2	5	270	0.00	29.921 
17:15	88.2	88.2	95.6	60	72.5	1	3	270	0.00	29.918 
17:20	88.2	88.2	96.1	61	73.0	1	2	248	0.00	29.916 
17:25	88.4	88.4	95.5	59	72.2	2	4	248	0.00	29.918 
17:30	88.2	88.2	95.6	60	72.5	1	3	292	0.00	29.918 
17:35	88.0	88.0	94.7	59	71.8	2	4	270	0.00	29.915 
17:40	87.8	87.8	94.3	59	71.7	2	3	270	0.00	29.913 
17:45	87.6	87.6	93.9	59	71.5	1	4	270	0.00	29.910 
17:50	87.6	87.6	94.3	60	72.0	1	3	248	0.00	29.907 
17:55	87.4	87.4	94.8	62	72.7	1	3	225	0.00	29.907 
18:00	87.0	87.0	93.9	62	72.4	0	1	248	0.00	29.903 
18:05	87.0	87.0	93.9	62	72.4	1	2	248	0.00	29.900 
18:10	87.0	87.0	93.5	61	71.9	1	3	270	0.00	29.899 
18:15	86.7	86.7	93.7	63	72.6	0	2	270	0.00	29.898 
18:20	86.5	86.5	93.3	63	72.4	0	3	270	0.00	29.897 
18:25	86.1	86.1	92.4	63	72.0	0	2	270	0.00	29.898 
18:30	86.1	86.1	92.8	64	72.5	0	2	270	0.00	29.896 
18:35	86.1	86.1	93.2	65	72.9	0	1	270	0.00	29.895 
18:40	85.7	85.7	92.3	65	72.5	0	1	270	0.00	29.896 
18:45	85.5	85.5	91.9	65	72.4	0	1	270	0.00	29.899 
18:50	85.3	85.3	91.2	64	71.7	0	2	270	0.00	29.899 
18:55	85.3	85.3	91.5	65	72.2	0	1	270	0.00	29.900 
19:00	85.1	85.1	91.5	66	72.4	0	0	---	0.00	29.900 
19:05	84.7	84.7	91.0	67	72.5	0	1	270	0.00	29.900 
19:10	84.3	84.3	90.5	68	72.6	0	0	---	0.00	29.902 
19:15	84.0	84.0	89.8	68	72.3	0	0	---	0.00	29.907 
19:20	83.6	83.6	89.3	69	72.3	0	0	---	0.00	29.906 
19:25	83.4	83.4	89.2	70	72.6	0	1	270	0.00	29.908 
19:30	83.0	83.0	88.4	70	72.2	0	0	---	0.00	29.912 
19:35	82.6	82.6	87.8	71	72.2	0	0	---	0.00	29.914 
19:40	82.2	82.2	87.3	72	72.2	0	0	---	0.00	29.915 
19:45	82.0	82.0	87.1	73	72.5	0	0	---	0.00	29.916 
19:50	81.6	81.6	86.5	74	72.5	0	0	---	0.00	29.918 
19:55	81.2	81.2	85.9	75	72.5	0	0	---	0.00	29.920 
20:00	81.1	81.1	85.7	75	72.4	0	1	270	0.00	29.919 
20:05	80.9	80.9	85.3	75	72.2	0	0	---	0.00	29.916 
20:10	80.7	80.7	85.1	76	72.4	0	0	---	0.00	29.916 
20:15	80.5	80.5	84.8	77	72.6	0	0	---	0.00	29.918 
20:20	80.3	80.3	84.6	78	72.8	0	0	---	0.00	29.918 
20:25	79.9	79.9	83.8	78	72.4	0	0	---	0.00	29.919 
20:30	79.8	79.8	83.7	79	72.7	0	0	---	0.00	29.918 
20:35	79.6	79.6	83.4	80	72.9	0	0	---	0.00	29.918 
20:40	79.4	79.4	83.0	80	72.7	0	0	---	0.00	29.921 
20:45	79.2	79.2	82.6	80	72.5	0	0	---	0.00	29.922 
20:50	79.0	79.0	82.3	81	72.7	0	0	---	0.00	29.929 
20:55	78.8	78.8	81.9	82	72.8	0	0	---	0.00	29.930 
21:00	78.6	78.6	81.5	82	72.6	0	0	---	0.00	29.930 
21:05	78.5	78.5	81.4	83	72.9	0	0	---	0.00	29.927 
21:10	78.3	78.3	81.0	83	72.7	0	0	---	0.00	29.926 
21:15	78.1	78.1	80.6	84	72.9	0	0	---	0.00	29.926 
21:20	77.9	77.9	80.2	84	72.7	0	0	---	0.00	29.924 
21:25	77.9	77.9	80.2	85	73.0	0	0	---	0.00	29.923 
21:30	77.7	77.7	79.8	86	73.2	0	0	---	0.00	29.923 
21:35	77.7	77.7	79.8	86	73.2	0	0	---	0.00	29.928 
21:40	77.7	77.7	79.8	86	73.2	0	0	---	0.00	29.928 
21:45	77.6	77.6	79.6	86	73.1	0	0	---	0.00	29.930 
21:50	77.6	77.6	79.6	87	73.4	0	0	---	0.00	29.931 
21:55	77.4	77.4	79.1	87	73.2	0	0	---	0.00	29.932 
22:00	77.2	77.2	78.7	88	73.4	0	0	---	0.00	29.931 
22:05	77.4	77.4	79.1	88	73.6	0	1	270	0.00	29.925 
22:10	77.4	77.4	79.1	88	73.6	0	0	---	0.00	29.924 
22:15	77.2	77.2	78.7	88	73.4	0	0	---	0.00	29.925 
22:20	77.2	77.2	78.7	88	73.4	0	0	---	0.00	29.924 
22:25	77.2	77.2	78.7	88	73.4	0	0	---	0.00	29.923 
22:30	77.0	77.0	78.2	89	73.5	0	0	---	0.00	29.919 
22:35	76.8	76.8	77.8	89	73.3	0	0	---	0.00	29.916 
22:40	76.8	76.8	77.8	89	73.3	0	0	---	0.00	29.916 
22:45	76.7	76.7	77.5	90	73.5	0	0	---	0.00	29.914 
22:50	76.7	76.7	77.5	90	73.5	0	0	---	0.00	29.915 
22:55	76.5	76.5	77.1	90	73.3	0	0	---	0.00	29.914 
23:00	76.3	76.3	76.7	90	73.1	0	0	---	0.00	29.913 
23:05	76.3	76.3	76.6	91	73.5	0	0	---	0.00	29.913 
23:10	76.1	76.1	76.1	91	73.3	0	0	---	0.00	29.912 
23:15	76.0	76.0	75.8	92	73.5	0	0	---	0.00	29.912 
23:20	75.8	75.8	75.4	92	73.3	0	0	---	0.00	29.910 
23:25	75.4	75.4	74.5	92	72.9	0	0	---	0.00	29.910 
23:30	75.4	75.4	74.5	92	72.9	0	0	---	0.00	29.912 
23:35	75.3	75.3	74.2	93	73.1	0	0	---	0.00	29.909 
23:40	75.3	75.3	74.2	93	73.1	0	0	---	0.00	29.909 
23:45	75.1	75.1	73.6	94	73.2	0	0	---	0.00	29.907 
23:50	75.1	75.1	73.6	94	73.2	0	0	---	0.00	29.905 
23:55	74.9	74.9	74.9	94	73.0	0	0	---	0.00	29.902 

CoCoRaHS
IN-AL-39
A2 Web Hosting
Creative Commons License
GoDaddy
Look for:

loaded 2017-11-24 06:14:56 • last modified 2010-11-18 10:43:29
Privacy PolicyDisclaimer
• wx.awcolley.com is powered by PmWiki v.2002016 •
• all content (unless otherwise noted) © 2017 A W Colley